Time;durP1;ratioP1;P1;durP2;ratioP2;P2;SDS_P1;SDS_P2;PMS_P1;PMS_P2;Temp;Humidity;BMP_temperature;BMP_pressure;BME280_temperature;BME280_humidity;BME280_pressure;Samples;Min_cycle;Max_cycle;Signal;HPM_P1;HPM_P2
2021/11/03 00:02:05;;;;;;;4.55;4.15;;;;;;;;;;4975733;28;20193;-82
2021/11/03 00:04:31;;;;;;;8.15;4.30;;;;;;;;;;4976345;28;20693;-81
2021/11/03 00:06:57;;;;;;;10.40;4.18;;;;;;;;;;4975909;28;20209;-81
2021/11/03 00:09:23;;;;;;;4.90;4.32;;;;;;;;;;4975993;28;20176;-81
2021/11/03 00:11:49;;;;;;;5.85;3.97;;;;;;;;;;4974553;28;20308;-79
2021/11/03 00:14:15;;;;;;;7.88;4.57;;;;;;;;;;4976025;28;20207;-81
2021/11/03 00:16:41;;;;;;;5.20;4.10;;;;;;;;;;4976007;28;20274;-80
2021/11/03 00:19:07;;;;;;;5.60;4.10;;;;;;;;;;4974578;28;20435;-81
2021/11/03 00:21:33;;;;;;;8.20;3.35;;;;;;;;;;4975505;28;20524;-81
2021/11/03 00:23:59;;;;;;;4.90;4.28;;;;;;;;;;4975813;28;20176;-82
2021/11/03 00:26:25;;;;;;;6.07;4.60;;;;;;;;;;4975756;28;20186;-81
2021/11/03 00:28:51;;;;;;;6.85;4.65;;;;;;;;;;4975568;28;20410;-81
2021/11/03 00:31:17;;;;;;;6.00;5.33;;;;;;;;;;4975118;28;20204;-81
2021/11/03 00:33:43;;;;;;;5.63;5.07;;;;;;;;;;4976650;28;20419;-81
2021/11/03 00:36:09;;;;;;;7.57;4.13;;;;;;;;;;4977134;28;20712;-81
2021/11/03 00:38:36;;;;;;;7.15;4.95;;;;;;;;;;4977119;28;20404;-81
2021/11/03 00:41:02;;;;;;;5.25;4.50;;;;;;;;;;4977957;28;20207;-81
2021/11/03 00:43:28;;;;;;;7.68;4.53;;;;;;;;;;4977033;28;20211;-81
2021/11/03 00:45:54;;;;;;;6.90;4.55;;;;;;;;;;4975801;28;20199;-81
2021/11/03 00:48:20;;;;;;;6.40;4.80;;;;;;;;;;4976759;28;20180;-81
2021/11/03 00:50:47;;;;;;;5.68;5.00;;;;;;;;;;4976716;28;20826;-82
2021/11/03 00:53:13;;;;;;;6.68;5.32;;;;;;;;;;4974783;28;20238;-81
2021/11/03 00:55:42;;;;;;;5.93;5.05;;;;;;;;;;4975788;28;20258;-82
2021/11/03 00:58:08;;;;;;;5.68;5.13;;;;;;;;;;4973709;28;20532;-81
2021/11/03 01:00:35;;;;;;;9.63;5.72;;;;;;;;;;4974909;28;20208;-81
2021/11/03 01:03:01;;;;;;;6.55;5.35;;;;;;;;;;4974775;28;20279;-82
2021/11/03 01:05:27;;;;;;;6.00;5.07;;;;;;;;;;4974847;28;20186;-82
2021/11/03 01:07:54;;;;;;;9.02;5.30;;;;;;;;;;4975138;28;20175;-82
2021/11/03 01:10:21;;;;;;;5.28;4.75;;;;;;;;;;4974961;28;20191;-82
2021/11/03 01:12:47;;;;;;;5.32;4.80;;;;;;;;;;4974450;28;20196;-82
2021/11/03 01:15:15;;;;;;;8.30;5.55;;;;;;;;;;4974690;28;20564;-82
2021/11/03 01:17:41;;;;;;;7.20;5.40;;;;;;;;;;4973399;28;20544;-82
2021/11/03 01:20:08;;;;;;;8.00;5.93;;;;;;;;;;4975275;28;20291;-82
2021/11/03 01:22:35;;;;;;;6.40;5.43;;;;;;;;;;4975073;28;20200;-82
2021/11/03 01:25:00;;;;;;;10.20;5.35;;;;;;;;;;4975132;28;20489;-82
2021/11/03 01:27:26;;;;;;;6.10;5.50;;;;;;;;;;4973586;28;20270;-82
2021/11/03 01:29:52;;;;;;;6.60;5.20;;;;;;;;;;4975037;28;20747;-82
2021/11/03 01:32:18;;;;;;;7.05;5.78;;;;;;;;;;4974242;28;20669;-82
2021/11/03 01:34:44;;;;;;;7.80;6.28;;;;;;;;;;4973484;28;20187;-82
2021/11/03 01:37:11;;;;;;;9.33;6.17;;;;;;;;;;4974479;28;20184;-82
2021/11/03 01:39:37;;;;;;;6.45;5.18;;;;;;;;;;4973075;28;20415;-82
2021/11/03 01:42:03;;;;;;;9.20;5.65;;;;;;;;;;4974106;28;20224;-82
2021/11/03 01:44:29;;;;;;;11.63;6.03;;;;;;;;;;4974513;28;20179;-82
2021/11/03 01:46:57;;;;;;;7.28;5.75;;;;;;;;;;4974436;28;20172;-82
2021/11/03 01:49:25;;;;;;;6.13;5.53;;;;;;;;;;4974389;28;20172;-82
2021/11/03 01:51:55;;;;;;;8.40;6.10;;;;;;;;;;4973832;28;20230;-82
2021/11/03 01:54:29;;;;;;;10.32;6.40;;;;;;;;;;4974665;28;20176;-82
2021/11/03 01:56:55;;;;;;;8.00;5.63;;;;;;;;;;4974576;28;20217;-82
2021/11/03 01:59:29;;;;;;;7.07;5.90;;;;;;;;;;4974590;28;20572;-82
2021/11/03 02:01:55;;;;;;;7.40;6.30;;;;;;;;;;4973788;28;20274;-82
2021/11/03 02:04:22;;;;;;;8.27;5.80;;;;;;;;;;4974391;28;20176;-82
2021/11/03 02:06:48;;;;;;;7.78;6.00;;;;;;;;;;4973963;28;20187;-82
2021/11/03 02:09:14;;;;;;;9.38;6.25;;;;;;;;;;4961056;28;20187;-80
2021/11/03 02:11:41;;;;;;;8.68;5.65;;;;;;;;;;4977890;28;20233;-83
2021/11/03 02:14:08;;;;;;;11.55;7.30;;;;;;;;;;4978208;28;20179;-82
2021/11/03 02:16:36;;;;;;;8.18;6.00;;;;;;;;;;4978595;28;20184;-82
2021/11/03 02:19:04;;;;;;;9.70;7.38;;;;;;;;;;4978195;28;20180;-82
2021/11/03 02:21:31;;;;;;;12.38;7.40;;;;;;;;;;4977672;28;20204;-82
2021/11/03 02:24:30;;;;;;;11.15;7.20;;;;;;;;;;4977974;28;20176;-82
2021/11/03 02:26:57;;;;;;;11.20;7.38;;;;;;;;;;4955966;28;20259;-81
2021/11/03 02:29:24;;;;;;;10.52;6.95;;;;;;;;;;4978592;28;20172;-82
2021/11/03 02:31:53;;;;;;;11.25;6.60;;;;;;;;;;4976064;28;20216;-82
2021/11/03 02:34:21;;;;;;;8.65;5.85;;;;;;;;;;4977678;28;20214;-82
2021/11/03 02:36:52;;;;;;;7.90;5.45;;;;;;;;;;4977628;28;20620;-82
2021/11/03 02:39:19;;;;;;;7.97;6.15;;;;;;;;;;4976342;28;20186;-82
2021/11/03 02:41:45;;;;;;;11.52;5.90;;;;;;;;;;4977091;28;20215;-82
2021/11/03 02:44:16;;;;;;;11.93;6.70;;;;;;;;;;4976279;28;20548;-82
2021/11/03 02:46:43;;;;;;;10.38;6.72;;;;;;;;;;4977514;28;20400;-82
2021/11/03 02:49:09;;;;;;;8.80;6.80;;;;;;;;;;4977530;28;20184;-82
2021/11/03 02:51:36;;;;;;;10.90;6.45;;;;;;;;;;4976060;28;20334;-82
2021/11/03 02:54:06;;;;;;;9.40;6.10;;;;;;;;;;4977416;28;20306;-82
2021/11/03 02:56:35;;;;;;;15.07;7.97;;;;;;;;;;4977322;28;20200;-81
2021/11/03 02:59:01;;;;;;;15.43;7.20;;;;;;;;;;4977375;28;20180;-82
2021/11/03 03:01:48;;;;;;;11.15;7.30;;;;;;;;;;4976887;28;20217;-82
2021/11/03 03:04:16;;;;;;;8.80;6.68;;;;;;;;;;4977191;28;20164;-82
2021/11/03 03:06:42;;;;;;;14.13;7.97;;;;;;;;;;4977089;28;20179;-82
2021/11/03 03:09:10;;;;;;;10.25;7.00;;;;;;;;;;4975827;28;20547;-82
2021/11/03 03:11:37;;;;;;;12.38;7.90;;;;;;;;;;4975385;28;20191;-81
2021/11/03 03:14:04;;;;;;;12.13;7.80;;;;;;;;;;4976984;28;20539;-82
2021/11/03 03:16:30;;;;;;;18.70;8.55;;;;;;;;;;4977021;28;20180;-82
2021/11/03 03:18:57;;;;;;;13.27;9.03;;;;;;;;;;4975851;28;20655;-81
2021/11/03 03:21:23;;;;;;;13.35;8.20;;;;;;;;;;4976683;28;20553;-81
2021/11/03 03:23:49;;;;;;;15.18;10.05;;;;;;;;;;4976951;28;20184;-82
2021/11/03 03:26:16;;;;;;;12.60;8.77;;;;;;;;;;4975298;28;20748;-82
2021/11/03 03:28:42;;;;;;;15.98;9.75;;;;;;;;;;4976758;28;20174;-81
2021/11/03 03:31:11;;;;;;;20.17;10.47;;;;;;;;;;4976245;28;20676;-82
2021/11/03 03:33:37;;;;;;;16.92;11.85;;;;;;;;;;4976544;28;20436;-82
2021/11/03 03:36:03;;;;;;;15.68;10.57;;;;;;;;;;4976574;28;20180;-81
2021/11/03 03:38:29;;;;;;;13.73;8.88;;;;;;;;;;4976314;28;20187;-82
2021/11/03 03:40:55;;;;;;;22.60;11.70;;;;;;;;;;4975011;28;20204;-82
2021/11/03 03:43:21;;;;;;;14.95;10.25;;;;;;;;;;4976335;28;20196;-82
2021/11/03 03:45:47;;;;;;;18.40;11.60;;;;;;;;;;4976435;28;20176;-82
2021/11/03 03:48:13;;;;;;;13.50;10.27;;;;;;;;;;4976341;28;20636;-82
2021/11/03 03:50:40;;;;;;;16.20;10.93;;;;;;;;;;4976178;28;20419;-82
2021/11/03 03:53:10;;;;;;;14.80;10.88;;;;;;;;;;4975871;28;20621;-82
2021/11/03 03:55:36;;;;;;;19.30;11.20;;;;;;;;;;4976342;28;20184;-82
2021/11/03 03:58:02;;;;;;;14.10;10.73;;;;;;;;;;4976206;28;20743;-82
2021/11/03 04:00:28;;;;;;;14.40;10.60;;;;;;;;;;4976247;28;20603;-82
2021/11/03 04:02:54;;;;;;;16.30;10.20;;;;;;;;;;4958577;28;20762;-82
2021/11/03 04:05:21;;;;;;;16.98;10.88;;;;;;;;;;4976078;28;20855;-82
2021/11/03 04:07:47;;;;;;;16.02;11.18;;;;;;;;;;4976032;28;20618;-82
2021/11/03 04:10:14;;;;;;;18.60;11.88;;;;;;;;;;4975927;28;20184;-83
2021/11/03 04:12:40;;;;;;;20.25;13.05;;;;;;;;;;4974317;28;20196;-82
2021/11/03 04:15:08;;;;;;;23.10;14.18;;;;;;;;;;4975807;28;20187;-82
2021/11/03 04:17:34;;;;;;;26.27;14.30;;;;;;;;;;4975793;28;20184;-82
2021/11/03 04:20:00;;;;;;;28.15;16.48;;;;;;;;;;4975653;28;20204;-83
2021/11/03 04:22:26;;;;;;;33.97;17.35;;;;;;;;;;4974248;28;20202;-83
2021/11/03 04:24:52;;;;;;;27.92;17.20;;;;;;;;;;4974649;28;20325;-82
2021/11/03 04:27:18;;;;;;;31.87;16.80;;;;;;;;;;4975918;28;20569;-82
2021/11/03 04:29:44;;;;;;;34.15;18.60;;;;;;;;;;4974132;28;20414;-82
2021/11/03 04:32:10;;;;;;;38.47;19.17;;;;;;;;;;4973822;28;20216;-83
2021/11/03 04:34:36;;;;;;;43.28;20.67;;;;;;;;;;4975577;28;20184;-82
2021/11/03 04:37:03;;;;;;;37.53;18.67;;;;;;;;;;4975309;28;20232;-83
2021/11/03 04:39:29;;;;;;;38.83;19.45;;;;;;;;;;4975505;28;20267;-82
2021/11/03 04:41:55;;;;;;;44.53;20.23;;;;;;;;;;4975014;28;20255;-82
2021/11/03 04:44:21;;;;;;;33.05;18.05;;;;;;;;;;4975549;28;20305;-83
2021/11/03 04:46:47;;;;;;;40.30;19.95;;;;;;;;;;4974242;28;20205;-82
2021/11/03 04:49:13;;;;;;;41.13;20.88;;;;;;;;;;4978269;28;20177;-82
2021/11/03 04:51:39;;;;;;;34.00;17.60;;;;;;;;;;4975176;28;20327;-82
2021/11/03 04:54:05;;;;;;;39.60;22.40;;;;;;;;;;4976204;28;20185;-82
2021/11/03 04:56:32;;;;;;;44.42;21.75;;;;;;;;;;4976514;28;20422;-82
2021/11/03 04:58:58;;;;;;;48.15;22.70;;;;;;;;;;4960186;28;20537;-82
2021/11/03 05:01:25;;;;;;;45.90;22.93;;;;;;;;;;4974952;28;20211;-82
2021/11/03 05:03:51;;;;;;;48.45;22.17;;;;;;;;;;4975417;28;20434;-82
2021/11/03 05:06:19;;;;;;;43.83;20.80;;;;;;;;;;4975652;28;20198;-81
2021/11/03 05:08:45;;;;;;;42.22;21.00;;;;;;;;;;4974175;28;20211;-82
2021/11/03 05:11:11;;;;;;;52.05;23.08;;;;;;;;;;4973637;28;20186;-82
2021/11/03 05:13:37;;;;;;;45.05;20.85;;;;;;;;;;4973859;28;20241;-82
2021/11/03 05:16:04;;;;;;;41.47;21.65;;;;;;;;;;4975033;28;20303;-82
2021/11/03 05:18:30;;;;;;;45.90;19.38;;;;;;;;;;4975041;28;20193;-82
2021/11/03 05:20:56;;;;;;;43.10;18.77;;;;;;;;;;4974547;28;20212;-82
2021/11/03 05:23:25;;;;;;;40.93;19.60;;;;;;;;;;4974816;28;20323;-82
2021/11/03 05:25:52;;;;;;;32.85;17.65;;;;;;;;;;4974822;28;20408;-82
2021/11/03 05:28:18;;;;;;;44.25;20.80;;;;;;;;;;4974707;28;20251;-82
2021/11/03 05:30:45;;;;;;;39.05;18.65;;;;;;;;;;4974616;28;20187;-82
2021/11/03 05:33:11;;;;;;;43.47;17.98;;;;;;;;;;4974237;28;20283;-82
2021/11/03 05:35:37;;;;;;;36.77;18.77;;;;;;;;;;4974560;28;20203;-82
2021/11/03 05:38:03;;;;;;;42.17;18.02;;;;;;;;;;4974536;28;20416;-82
2021/11/03 05:40:30;;;;;;;39.08;19.40;;;;;;;;;;4973168;28;20225;-82
2021/11/03 05:42:56;;;;;;;37.53;18.42;;;;;;;;;;4973380;28;20685;-82
2021/11/03 05:45:24;;;;;;;38.65;18.50;;;;;;;;;;4974417;28;20169;-82
2021/11/03 05:47:50;;;;;;;41.65;18.75;;;;;;;;;;4974292;28;20180;-82
2021/11/03 05:50:21;;;;;;;41.88;17.52;;;;;;;;;;4957096;28;20191;-83
2021/11/03 05:52:48;;;;;;;40.60;18.15;;;;;;;;;;4974129;28;20617;-83
2021/11/03 05:55:14;;;;;;;42.25;18.75;;;;;;;;;;4974628;28;20178;-83
2021/11/03 05:57:40;;;;;;;46.25;19.40;;;;;;;;;;4972899;28;20189;-82
2021/11/03 06:00:10;;;;;;;41.67;19.50;;;;;;;;;;4973044;28;20231;-83
2021/11/03 06:02:36;;;;;;;42.70;19.10;;;;;;;;;;4974182;28;20571;-83
2021/11/03 06:05:02;;;;;;;40.80;18.57;;;;;;;;;;4974596;28;20222;-82
2021/11/03 06:07:28;;;;;;;40.47;18.02;;;;;;;;;;4973473;28;20420;-82
2021/11/03 06:09:55;;;;;;;32.40;17.63;;;;;;;;;;4974169;28;20641;-83
2021/11/03 06:12:22;;;;;;;31.27;16.33;;;;;;;;;;4972756;28;20436;-83
2021/11/03 06:14:48;;;;;;;28.40;16.40;;;;;;;;;;4974089;28;20205;-83
2021/11/03 06:17:14;;;;;;;25.75;14.02;;;;;;;;;;4973109;28;20602;-82
2021/11/03 06:19:40;;;;;;;30.02;15.85;;;;;;;;;;4972789;28;20281;-83
2021/11/03 06:22:06;;;;;;;23.40;14.10;;;;;;;;;;4973760;28;20216;-81
2021/11/03 06:24:32;;;;;;;26.35;14.43;;;;;;;;;;4974141;28;20417;-81
2021/11/03 06:26:58;;;;;;;29.85;14.82;;;;;;;;;;4972837;28;20189;-81
2021/11/03 06:29:24;;;;;;;28.13;16.27;;;;;;;;;;4974468;28;20206;-84
2021/11/03 06:31:50;;;;;;;28.23;15.17;;;;;;;;;;4974318;28;20473;-84
2021/11/03 06:34:16;;;;;;;26.37;14.63;;;;;;;;;;4979730;28;20423;-82
2021/11/03 06:36:42;;;;;;;25.70;14.43;;;;;;;;;;4974742;28;20912;-82
2021/11/03 06:39:09;;;;;;;24.00;15.10;;;;;;;;;;4973854;28;20424;-81
2021/11/03 06:41:36;;;;;;;27.05;13.75;;;;;;;;;;4973481;28;20219;-82
2021/11/03 06:44:03;;;;;;;20.83;12.50;;;;;;;;;;4973793;28;20200;-82
2021/11/03 06:46:29;;;;;;;29.60;14.10;;;;;;;;;;4973925;28;20181;-83
2021/11/03 06:48:56;;;;;;;27.05;12.90;;;;;;;;;;4972527;28;20210;-81
2021/11/03 06:51:22;;;;;;;25.08;12.63;;;;;;;;;;4973615;28;20184;-83
2021/11/03 06:53:48;;;;;;;22.63;13.45;;;;;;;;;;4974974;28;20235;-82
2021/11/03 06:56:14;;;;;;;23.30;13.60;;;;;;;;;;4976295;28;20185;-81
2021/11/03 06:58:40;;;;;;;34.25;15.38;;;;;;;;;;4977424;28;20411;-82
2021/11/03 07:01:08;;;;;;;26.27;15.25;;;;;;;;;;4976965;28;20299;-82
2021/11/03 07:03:35;;;;;;;23.83;14.95;;;;;;;;;;4977330;28;20598;-82
2021/11/03 07:06:01;;;;;;;23.15;13.73;;;;;;;;;;4975894;28;20176;-81
2021/11/03 07:08:28;;;;;;;25.23;13.73;;;;;;;;;;4977038;28;20663;-82
2021/11/03 07:10:56;;;;;;;22.58;13.30;;;;;;;;;;4976974;28;20704;-81
2021/11/03 07:13:23;;;;;;;26.25;14.93;;;;;;;;;;4976869;28;20203;-82
2021/11/03 07:15:49;;;;;;;21.35;12.82;;;;;;;;;;4976990;28;20177;-82
2021/11/03 07:18:15;;;;;;;26.35;14.55;;;;;;;;;;4976832;28;20235;-82
2021/11/03 07:20:42;;;;;;;24.50;13.88;;;;;;;;;;4977109;28;20286;-82
2021/11/03 07:23:09;;;;;;;19.58;11.85;;;;;;;;;;4976778;28;20202;-82
2021/11/03 07:25:35;;;;;;;24.30;14.05;;;;;;;;;;4977116;28;20215;-81
2021/11/03 07:28:01;;;;;;;18.92;12.52;;;;;;;;;;4975478;28;20229;-82
2021/11/03 07:30:29;;;;;;;22.30;12.43;;;;;;;;;;4975262;28;20187;-82
2021/11/03 07:32:55;;;;;;;23.75;13.73;;;;;;;;;;4975199;28;20474;-82
2021/11/03 07:35:21;;;;;;;23.08;13.63;;;;;;;;;;4976651;28;20183;-82
2021/11/03 07:37:47;;;;;;;20.75;12.50;;;;;;;;;;4976648;28;20172;-82
2021/11/03 07:40:15;;;;;;;27.38;14.15;;;;;;;;;;4976245;28;20200;-82
2021/11/03 07:42:41;;;;;;;24.85;14.00;;;;;;;;;;4974850;28;20208;-82
2021/11/03 07:45:08;;;;;;;25.33;14.93;;;;;;;;;;4976520;28;20544;-81
2021/11/03 07:47:34;;;;;;;22.30;12.30;;;;;;;;;;4978006;28;20176;-82
2021/11/03 07:50:00;;;;;;;21.90;13.35;;;;;;;;;;4978705;28;20559;-81
2021/11/03 07:52:26;;;;;;;24.17;14.35;;;;;;;;;;4975897;28;20200;-81
2021/11/03 07:54:52;;;;;;;29.23;13.80;;;;;;;;;;4976424;28;20175;-81
2021/11/03 07:57:19;;;;;;;22.73;13.13;;;;;;;;;;4976446;28;20415;-81
2021/11/03 07:59:45;;;;;;;25.67;14.25;;;;;;;;;;4976226;28;20412;-82
2021/11/03 08:02:11;;;;;;;25.23;12.63;;;;;;;;;;4975770;28;20203;-81
2021/11/03 08:04:37;;;;;;;25.13;14.45;;;;;;;;;;4976218;28;20221;-81
2021/11/03 08:07:03;;;;;;;24.60;12.30;;;;;;;;;;4976448;28;20176;-81
2021/11/03 08:09:30;;;;;;;21.55;12.15;;;;;;;;;;4975141;28;20263;-83
2021/11/03 08:11:58;;;;;;;22.50;12.68;;;;;;;;;;4976167;28;20194;-81
2021/11/03 08:14:27;;;;;;;25.15;12.82;;;;;;;;;;4975062;28;20235;-80
2021/11/03 08:17:01;;;;;;;22.38;13.35;;;;;;;;;;4976407;28;20180;-84
2021/11/03 08:19:35;;;;;;;19.50;11.50;;;;;;;;;;4976333;28;20226;-80
2021/11/03 08:22:01;;;;;;;18.52;11.55;;;;;;;;;;4974658;28;20700;-82
2021/11/03 08:24:27;;;;;;;22.73;12.95;;;;;;;;;;4975847;28;20292;-80
2021/11/03 08:26:55;;;;;;;22.48;13.20;;;;;;;;;;4975742;28;20654;-81
2021/11/03 08:29:21;;;;;;;22.75;12.30;;;;;;;;;;4974532;28;20180;-80
2021/11/03 08:31:47;;;;;;;20.55;11.60;;;;;;;;;;4975109;28;20267;-81
2021/11/03 08:34:14;;;;;;;23.13;11.32;;;;;;;;;;4975514;28;20195;-81
2021/11/03 08:36:40;;;;;;;17.05;11.95;;;;;;;;;;4975591;28;20191;-80
2021/11/03 08:39:07;;;;;;;22.75;11.60;;;;;;;;;;4975335;28;20641;-81
2021/11/03 08:41:33;;;;;;;17.98;10.60;;;;;;;;;;4973753;28;20217;-81
2021/11/03 08:43:59;;;;;;;18.00;11.97;;;;;;;;;;4975418;28;20181;-81
2021/11/03 08:46:25;;;;;;;18.95;11.80;;;;;;;;;;4975405;28;20419;-81
2021/11/03 08:48:56;;;;;;;18.25;11.50;;;;;;;;;;4958016;28;20183;-80
2021/11/03 08:51:22;;;;;;;19.50;12.30;;;;;;;;;;4974922;28;20192;-81
2021/11/03 08:53:48;;;;;;;17.60;10.85;;;;;;;;;;4974046;28;20183;-80
2021/11/03 08:56:15;;;;;;;23.13;12.27;;;;;;;;;;4975247;28;20258;-80
2021/11/03 08:58:41;;;;;;;18.35;11.88;;;;;;;;;;4974039;28;20629;-81
2021/11/03 09:01:07;;;;;;;17.00;11.60;;;;;;;;;;4973587;28;20227;-82
2021/11/03 09:03:35;;;;;;;18.40;13.00;;;;;;;;;;4975041;28;20192;-81
2021/11/03 09:06:01;;;;;;;16.75;11.10;;;;;;;;;;4973955;28;20656;-80
2021/11/03 09:08:27;;;;;;;18.02;11.07;;;;;;;;;;4975323;28;20184;-81
2021/11/03 09:10:55;;;;;;;16.55;11.27;;;;;;;;;;4974911;28;20185;-81
2021/11/03 09:13:23;;;;;;;15.15;11.02;;;;;;;;;;4974820;28;20215;-82
2021/11/03 09:15:50;;;;;;;19.58;10.57;;;;;;;;;;4972975;28;20176;-82
2021/11/03 09:18:16;;;;;;;23.33;12.77;;;;;;;;;;4957316;28;20219;-83
2021/11/03 09:20:44;;;;;;;14.93;10.13;;;;;;;;;;4973623;28;20231;-82
2021/11/03 09:23:10;;;;;;;16.33;10.73;;;;;;;;;;4974668;28;20199;-83
2021/11/03 09:25:37;;;;;;;16.10;11.95;;;;;;;;;;4975087;28;20234;-83
2021/11/03 09:28:03;;;;;;;17.65;10.43;;;;;;;;;;4974787;28;20207;-83
2021/11/03 09:30:30;;;;;;;14.85;10.93;;;;;;;;;;4974246;28;20179;-83
2021/11/03 09:32:57;;;;;;;15.13;11.35;;;;;;;;;;4973271;28;20204;-83
2021/11/03 09:35:24;;;;;;;15.60;11.13;;;;;;;;;;4974747;28;20186;-83
2021/11/03 09:37:51;;;;;;;14.90;11.45;;;;;;;;;;4973440;28;20183;-83
2021/11/03 09:40:28;;;;;;;21.25;12.70;;;;;;;;;;4974562;28;20222;-83
2021/11/03 09:42:55;;;;;;;14.98;9.88;;;;;;;;;;4972862;28;20231;-83
2021/11/03 09:45:23;;;;;;;17.80;11.75;;;;;;;;;;4974546;28;20172;-83
2021/11/03 09:47:57;;;;;;;17.13;12.18;;;;;;;;;;4974576;28;20168;-83
2021/11/03 09:50:25;;;;;;;15.98;12.65;;;;;;;;;;4974419;28;20611;-83
2021/11/03 09:53:02;;;;;;;17.80;11.88;;;;;;;;;;4974312;28;20555;-83
2021/11/03 09:55:30;;;;;;;23.02;11.82;;;;;;;;;;4974421;28;20523;-84
2021/11/03 09:57:57;;;;;;;20.73;12.55;;;;;;;;;;4973220;28;20192;-82
2021/11/03 10:00:41;;;;;;;19.85;11.20;;;;;;;;;;4973381;28;20211;-84
2021/11/03 10:03:16;;;;;;;18.83;13.00;;;;;;;;;;4974146;28;20214;-84
2021/11/03 10:05:47;;;;;;;21.27;12.98;;;;;;;;;;4977021;28;20176;-83
2021/11/03 10:08:15;;;;;;;19.15;12.30;;;;;;;;;;4979105;28;20156;-83
2021/11/03 10:10:42;;;;;;;21.58;12.85;;;;;;;;;;4974429;28;20187;-83
2021/11/03 10:13:18;;;;;;;18.83;12.77;;;;;;;;;;4972975;28;20257;-83
2021/11/03 10:16:03;;;;;;;16.67;12.77;;;;;;;;;;4974135;28;20176;-83
2021/11/03 10:18:30;;;;;;;14.80;11.65;;;;;;;;;;4974352;28;20580;-82
2021/11/03 10:21:15;;;;;;;17.55;12.93;;;;;;;;;;4972486;28;20214;-83
2021/11/03 10:23:49;;;;;;;18.88;12.55;;;;;;;;;;4974051;28;20239;-83
2021/11/03 10:26:15;;;;;;;19.35;13.00;;;;;;;;;;4974164;28;20195;-83
2021/11/03 10:28:45;;;;;;;20.13;12.75;;;;;;;;;;4976517;28;20173;-83
2021/11/03 10:31:31;;;;;;;23.85;13.35;;;;;;;;;;4976014;28;20219;-82
2021/11/03 10:33:59;;;;;;;18.65;12.93;;;;;;;;;;4977761;28;20177;-82
2021/11/03 10:36:25;;;;;;;15.45;12.35;;;;;;;;;;4977734;28;20231;-82
2021/11/03 10:38:56;;;;;;;19.80;12.15;;;;;;;;;;4977746;28;20200;-81
2021/11/03 10:41:34;;;;;;;24.10;13.77;;;;;;;;;;4977283;28;20661;-83
2021/11/03 10:44:02;;;;;;;23.75;14.05;;;;;;;;;;4977833;28;20176;-84
2021/11/03 10:46:31;;;;;;;19.20;13.27;;;;;;;;;;4977698;28;20200;-83
2021/11/03 10:49:13;;;;;;;18.45;12.43;;;;;;;;;;4977671;28;20664;-85
2021/11/03 10:51:41;;;;;;;16.45;12.32;;;;;;;;;;4977217;28;20204;-84
2021/11/03 10:54:12;;;;;;;19.13;12.68;;;;;;;;;;4977407;28;20180;-85
2021/11/03 10:56:58;;;;;;;23.08;15.18;;;;;;;;;;4977484;28;20176;-84
2021/11/03 10:59:26;;;;;;;17.60;12.93;;;;;;;;;;4977469;28;20605;-84
2021/11/03 11:01:54;;;;;;;21.60;14.30;;;;;;;;;;4976871;28;20217;-83
2021/11/03 11:04:36;;;;;;;22.13;13.95;;;;;;;;;;4977195;28;20181;-85
2021/11/03 11:07:41;;;;;;;20.38;14.00;;;;;;;;;;4977238;28;20172;-85
2021/11/03 11:10:31;;;;;;;18.98;12.90;;;;;;;;;;4917684;29;20197;-84
2021/11/03 11:12:58;;;;;;;20.02;12.35;;;;;;;;;;4912614;29;20210;-84
2021/11/03 11:15:27;;;;;;;23.13;12.20;;;;;;;;;;4948874;28;20211;-84
2021/11/03 11:18:13;;;;;;;18.40;11.60;;;;;;;;;;4976982;28;20168;-84
2021/11/03 11:20:49;;;;;;;17.70;11.77;;;;;;;;;;4976717;28;20208;-84
2021/11/03 11:23:44;;;;;;;20.15;12.80;;;;;;;;;;4975465;28;20211;-84
2021/11/03 11:26:15;;;;;;;17.52;13.07;;;;;;;;;;4924349;28;20190;-85
2021/11/03 11:28:52;;;;;;;24.55;14.80;;;;;;;;;;4976899;28;20616;-84
2021/11/03 11:31:35;;;;;;;17.27;12.82;;;;;;;;;;4975161;28;20248;-84
2021/11/03 11:34:01;;;;;;;23.42;14.75;;;;;;;;;;4975511;28;20180;-84
2021/11/03 11:36:34;;;;;;;21.88;13.98;;;;;;;;;;4977018;28;20606;-84
2021/11/03 11:39:00;;;;;;;20.98;11.90;;;;;;;;;;4974568;28;20175;-84
2021/11/03 11:41:39;;;;;;;20.00;12.20;;;;;;;;;;4976035;28;20719;-84
2021/11/03 11:44:11;;;;;;;17.48;12.63;;;;;;;;;;4976627;28;20172;-84
2021/11/03 11:46:37;;;;;;;18.27;13.82;;;;;;;;;;4975333;28;20172;-85
2021/11/03 11:49:15;;;;;;;19.60;13.98;;;;;;;;;;4976460;28;20195;-85
2021/11/03 11:51:44;;;;;;;19.58;14.38;;;;;;;;;;4976314;28;20207;-84
2021/11/03 11:54:28;;;;;;;20.08;14.25;;;;;;;;;;4975068;28;20180;-84
2021/11/03 11:57:13;;;;;;;20.15;13.90;;;;;;;;;;4976384;28;20546;-84
2021/11/03 12:00:05;;;;;;;17.17;11.95;;;;;;;;;;4976542;28;20200;-85
2021/11/03 12:02:32;;;;;;;17.58;11.98;;;;;;;;;;4953444;28;20246;-85
2021/11/03 12:05:23;;;;;;;15.88;12.55;;;;;;;;;;4974935;28;20522;-85
2021/11/03 12:08:04;;;;;;;16.92;12.77;;;;;;;;;;4976251;28;20204;-85
2021/11/03 12:10:32;;;;;;;17.20;11.40;;;;;;;;;;4974853;28;20208;-85
2021/11/03 12:13:05;;;;;;;18.58;12.60;;;;;;;;;;4975770;28;20220;-84
2021/11/03 12:15:58;;;;;;;16.95;12.55;;;;;;;;;;4976183;28;20558;-84
2021/11/03 12:18:26;;;;;;;18.42;11.75;;;;;;;;;;4976052;28;20531;-84
2021/11/03 12:21:08;;;;;;;17.77;12.05;;;;;;;;;;4975655;28;20227;-84
2021/11/03 12:23:43;;;;;;;15.45;12.65;;;;;;;;;;4975829;28;20207;-84
2021/11/03 12:26:24;;;;;;;18.20;12.27;;;;;;;;;;4975667;28;20176;-83
2021/11/03 12:28:56;;;;;;;17.55;12.73;;;;;;;;;;4975658;28;20172;-84
2021/11/03 12:31:28;;;;;;;16.98;11.60;;;;;;;;;;4975180;28;20191;-84
2021/11/03 12:34:03;;;;;;;17.23;12.43;;;;;;;;;;4974370;28;20176;-84
2021/11/03 12:36:31;;;;;;;14.65;11.32;;;;;;;;;;4975635;28;20581;-84
2021/11/03 12:38:59;;;;;;;16.58;11.80;;;;;;;;;;4975527;28;20526;-84
2021/11/03 12:41:29;;;;;;;15.52;11.52;;;;;;;;;;4973864;28;20212;-83
2021/11/03 12:44:01;;;;;;;21.15;12.90;;;;;;;;;;4974334;28;20716;-84
2021/11/03 12:46:27;;;;;;;18.70;13.40;;;;;;;;;;4975366;28;20590;-84
2021/11/03 12:48:55;;;;;;;18.83;13.38;;;;;;;;;;4974021;28;20679;-83
2021/11/03 12:51:21;;;;;;;19.88;14.02;;;;;;;;;;4974705;28;20183;-83
2021/11/03 12:54:02;;;;;;;19.40;14.37;;;;;;;;;;4975296;28;20180;-83
2021/11/03 12:56:30;;;;;;;20.13;14.05;;;;;;;;;;4974032;28;20423;-83
2021/11/03 12:59:01;;;;;;;17.20;13.30;;;;;;;;;;4975047;28;20206;-83
2021/11/03 13:01:37;;;;;;;25.27;14.10;;;;;;;;;;4974719;28;20229;-83
2021/11/03 13:04:11;;;;;;;17.77;14.07;;;;;;;;;;4973969;28;20591;-83
2021/11/03 13:06:40;;;;;;;22.83;14.77;;;;;;;;;;4975181;28;20172;-83
2021/11/03 13:09:06;;;;;;;21.00;14.93;;;;;;;;;;4974863;28;20183;-83
2021/11/03 13:11:36;;;;;;;23.55;16.42;;;;;;;;;;4974678;28;20525;-83
2021/11/03 13:14:06;;;;;;;18.75;13.65;;;;;;;;;;4974912;28;20263;-83
2021/11/03 13:16:37;;;;;;;18.77;12.15;;;;;;;;;;4974950;28;20180;-83
2021/11/03 13:19:20;;;;;;;16.48;12.07;;;;;;;;;;4974910;28;20185;-83
2021/11/03 13:21:47;;;;;;;12.60;9.30;;;;;;;;;;4973649;28;20219;-83
2021/11/03 13:24:16;;;;;;;12.15;9.13;;;;;;;;;;4975703;28;20221;-83
2021/11/03 13:26:43;;;;;;;15.00;9.70;;;;;;;;;;4973525;28;20230;-82
2021/11/03 13:29:18;;;;;;;11.75;8.15;;;;;;;;;;4974688;28;20180;-83
2021/11/03 13:31:45;;;;;;;10.50;8.02;;;;;;;;;;4974416;28;20207;-82
2021/11/03 13:34:18;;;;;;;17.08;9.10;;;;;;;;;;4974983;28;20186;-82
2021/11/03 13:36:56;;;;;;;10.85;7.35;;;;;;;;;;4973842;28;20192;-82
2021/11/03 13:39:29;;;;;;;9.55;7.57;;;;;;;;;;4974512;28;20176;-83
2021/11/03 13:41:57;;;;;;;9.93;6.85;;;;;;;;;;4974183;28;20218;-82
2021/11/03 13:44:25;;;;;;;7.75;6.25;;;;;;;;;;4974334;28;20191;-82
2021/11/03 13:46:56;;;;;;;9.38;7.10;;;;;;;;;;4973205;28;20243;-82
2021/11/03 13:49:24;;;;;;;9.85;7.10;;;;;;;;;;4974447;28;20179;-82
2021/11/03 13:52:14;;;;;;;10.13;6.82;;;;;;;;;;4974080;28;20255;-82
2021/11/03 13:54:54;;;;;;;7.97;6.20;;;;;;;;;;4973196;28;20275;-82
2021/11/03 13:57:47;;;;;;;10.43;6.38;;;;;;;;;;4972933;28;20668;-82
2021/11/03 14:00:13;;;;;;;8.48;7.55;;;;;;;;;;4972495;28;20224;-82
2021/11/03 14:02:39;;;;;;;12.52;8.45;;;;;;;;;;4974665;28;20196;-82
2021/11/03 14:05:43;;;;;;;14.00;10.18;;;;;;;;;;4978218;28;20266;-82
2021/11/03 14:08:25;;;;;;;18.13;9.35;;;;;;;;;;4902955;29;20182;-82
2021/11/03 14:10:51;;;;;;;15.23;9.43;;;;;;;;;;4902709;29;20221;-81
2021/11/03 14:13:17;;;;;;;13.70;8.90;;;;;;;;;;4952811;28;20258;-82
2021/11/03 14:15:43;;;;;;;11.52;8.82;;;;;;;;;;4978080;28;20407;-81
2021/11/03 14:18:11;;;;;;;11.32;7.68;;;;;;;;;;4976824;28;20280;-81
2021/11/03 14:20:46;;;;;;;10.38;7.85;;;;;;;;;;4977973;28;20203;-82
2021/11/03 14:23:16;;;;;;;10.13;7.45;;;;;;;;;;4977950;28;20545;-82
2021/11/03 14:25:42;;;;;;;23.45;6.85;;;;;;;;;;4976958;28;20180;-82
2021/11/03 14:28:10;;;;;;;8.20;5.57;;;;;;;;;;4977992;28;20196;-82
2021/11/03 14:30:44;;;;;;;9.60;5.40;;;;;;;;;;4976502;28;20184;-82
2021/11/03 14:33:19;;;;;;;6.22;5.10;;;;;;;;;;4977619;28;20525;-81
2021/11/03 14:35:45;;;;;;;6.45;4.57;;;;;;;;;;4977840;28;20175;-83